Airfield :
LOGIN :

Register | Disclaimer

   EN    FR    IT 

 










Legend :    VFR   Marginal VFR   IFR   Intensive IFR   Very Intensive IFR
Visi :
Ceiling :
>= 8 km
>= 3000ft
5 to 8 km
1000 to 3000 ft
1500m to 5 km
500 to 1000 ft
800 to 1500m
200 to 500 ft
< 800m
< 200 ft
Symbols :   Thunderstorms  Fog  Heavy snow  Heavy precipitations  Wind > 20 kt
SIGMETs :     Misc.  Thunderstorms  Icing  Turbulence  Mountain Waves  Volcanic Ashes







- Airport Elevation : 80 ft
- IATA code : LPL
- Download approach charts


EGGP - Liverpool John Lennon

CURRENT METAR :
  • 210720Z 10008KT 9999 VCSH SCT023 BKN029 04/03 Q1007

EXPIRED METARs :
  • 210650Z 09007KT 9999 VCSH SCT010 BKN029 03/02 Q1007
  • 210620Z 09009KT 9999 -SHRA SCT016 BKN036 03/02 Q1006
  • 210550Z 09010KT 9999 -SHRA BKN011 04/02 Q1006
  • 210520Z AUTO 08011KT 9999 RA OVC008/// 04/02 Q1006
  • 210450Z AUTO 08009KT 9999 RA BKN008/// OVC012/// 04/02 Q1006
  • 210420Z AUTO 07009KT 9999 -RA SCT006/// BKN009/// OVC026/// 04/02 Q1006 RERA

TAF TAF EGGP
Valid from the 21 at 06:00 until the 22 at 06:00 UTC


210503Z 2106/2206 06009KT 9999 SCT025
BECMG 2106/2109 12010KT
TEMPO 2106/2110 7000 RA BKN009
PROB30 2121/2124 7000
BECMG 2200/2203 7000
PROB30 2200/2206 4000 BR
ATIS : +44 151 907 2000 (option 5 or ext 5150)
Met : +44 871 750 5150
No reported NOTAMs for that airfield.



MET'MAP, your aeronautical weather chart ! - Copyright ORBIFLY December 2007 - Disclaimer

ORBIFLY MET'MAP TEAM :

Programming & Development : Alexandra Zaïnal
Concept & Development : Baudouin d'Aumeries
Co-Development & Prog : Marc-Olivier Méhu
Technical & hardware support : Manuel Goepfert

Contact : metmap@orbifly.com




SOURCES & CREDITS :

   NOAA